sensor_id;sensor_type;location;lat;lon;timestamp;P1;durP1;ratioP1;P2;durP2;ratioP2
18100;SDS011;9177;49.156;8.142;2022-11-15T00:00:04;3.70;;;3.30;;
18100;SDS011;9177;49.156;8.142;2022-11-15T00:02:32;3.60;;;3.30;;
18100;SDS011;9177;49.156;8.142;2022-11-15T00:04:58;3.20;;;2.90;;
18100;SDS011;9177;49.156;8.142;2022-11-15T00:07:27;3.33;;;3.03;;
18100;SDS011;9177;49.156;8.142;2022-11-15T00:09:54;3.37;;;3.07;;
18100;SDS011;9177;49.156;8.142;2022-11-15T00:12:20;3.40;;;3.10;;
18100;SDS011;9177;49.156;8.142;2022-11-15T00:14:47;3.77;;;3.03;;
18100;SDS011;9177;49.156;8.142;2022-11-15T00:17:14;2.93;;;2.70;;
18100;SDS011;9177;49.156;8.142;2022-11-15T00:19:41;3.50;;;3.20;;
18100;SDS011;9177;49.156;8.142;2022-11-15T00:22:08;3.87;;;3.17;;
18100;SDS011;9177;49.156;8.142;2022-11-15T00:24:36;3.40;;;3.10;;
18100;SDS011;9177;49.156;8.142;2022-11-15T00:27:03;3.83;;;3.00;;
18100;SDS011;9177;49.156;8.142;2022-11-15T00:29:30;2.93;;;2.67;;
18100;SDS011;9177;49.156;8.142;2022-11-15T00:31:57;3.67;;;3.33;;
18100;SDS011;9177;49.156;8.142;2022-11-15T00:34:24;3.73;;;3.13;;
18100;SDS011;9177;49.156;8.142;2022-11-15T00:36:50;3.10;;;2.90;;
18100;SDS011;9177;49.156;8.142;2022-11-15T00:39:17;3.77;;;3.33;;
18100;SDS011;9177;49.156;8.142;2022-11-15T00:41:46;3.40;;;3.10;;
18100;SDS011;9177;49.156;8.142;2022-11-15T00:44:12;3.37;;;3.03;;
18100;SDS011;9177;49.156;8.142;2022-11-15T00:46:39;3.43;;;3.07;;
18100;SDS011;9177;49.156;8.142;2022-11-15T00:49:06;3.37;;;3.10;;
18100;SDS011;9177;49.156;8.142;2022-11-15T00:51:33;3.23;;;2.97;;
18100;SDS011;9177;49.156;8.142;2022-11-15T00:54:00;3.50;;;3.00;;
18100;SDS011;9177;49.156;8.142;2022-11-15T00:56:27;3.33;;;3.03;;
18100;SDS011;9177;49.156;8.142;2022-11-15T00:58:55;3.13;;;2.70;;
18100;SDS011;9177;49.156;8.142;2022-11-15T01:01:23;4.00;;;2.70;;
18100;SDS011;9177;49.156;8.142;2022-11-15T01:03:49;3.20;;;2.90;;
18100;SDS011;9177;49.156;8.142;2022-11-15T01:06:16;3.40;;;3.10;;
18100;SDS011;9177;49.156;8.142;2022-11-15T01:08:43;3.37;;;2.60;;
18100;SDS011;9177;49.156;8.142;2022-11-15T01:11:11;3.30;;;3.00;;
18100;SDS011;9177;49.156;8.142;2022-11-15T01:13:38;3.13;;;2.87;;
18100;SDS011;9177;49.156;8.142;2022-11-15T01:16:08;3.33;;;3.03;;
18100;SDS011;9177;49.156;8.142;2022-11-15T01:18:36;3.50;;;2.93;;
18100;SDS011;9177;49.156;8.142;2022-11-15T01:21:07;3.67;;;2.87;;
18100;SDS011;9177;49.156;8.142;2022-11-15T01:23:35;3.03;;;2.73;;
18100;SDS011;9177;49.156;8.142;2022-11-15T01:26:02;3.33;;;3.03;;
18100;SDS011;9177;49.156;8.142;2022-11-15T01:28:31;3.27;;;2.97;;
18100;SDS011;9177;49.156;8.142;2022-11-15T01:31:00;3.33;;;3.03;;
18100;SDS011;9177;49.156;8.142;2022-11-15T01:33:30;3.03;;;2.67;;
18100;SDS011;9177;49.156;8.142;2022-11-15T01:35:57;4.17;;;3.10;;
18100;SDS011;9177;49.156;8.142;2022-11-15T01:38:24;3.17;;;2.83;;
18100;SDS011;9177;49.156;8.142;2022-11-15T01:40:51;3.47;;;2.70;;
18100;SDS011;9177;49.156;8.142;2022-11-15T01:43:18;3.40;;;3.03;;
18100;SDS011;9177;49.156;8.142;2022-11-15T01:45:47;2.80;;;2.57;;
18100;SDS011;9177;49.156;8.142;2022-11-15T01:48:18;3.10;;;2.80;;
18100;SDS011;9177;49.156;8.142;2022-11-15T01:50:47;3.27;;;2.97;;
18100;SDS011;9177;49.156;8.142;2022-11-15T01:53:16;3.60;;;3.00;;
18100;SDS011;9177;49.156;8.142;2022-11-15T01:55:44;3.40;;;3.10;;
18100;SDS011;9177;49.156;8.142;2022-11-15T01:58:11;3.30;;;2.60;;
18100;SDS011;9177;49.156;8.142;2022-11-15T02:00:38;2.97;;;2.67;;
18100;SDS011;9177;49.156;8.142;2022-11-15T02:03:05;2.97;;;2.77;;
18100;SDS011;9177;49.156;8.142;2022-11-15T02:05:32;3.27;;;2.97;;
18100;SDS011;9177;49.156;8.142;2022-11-15T02:08:03;3.70;;;3.17;;
18100;SDS011;9177;49.156;8.142;2022-11-15T02:10:31;2.83;;;2.43;;
18100;SDS011;9177;49.156;8.142;2022-11-15T02:12:57;3.20;;;2.90;;
18100;SDS011;9177;49.156;8.142;2022-11-15T02:15:27;3.00;;;2.77;;
18100;SDS011;9177;49.156;8.142;2022-11-15T02:18:07;3.33;;;3.03;;
18100;SDS011;9177;49.156;8.142;2022-11-15T02:20:47;3.43;;;2.90;;
18100;SDS011;9177;49.156;8.142;2022-11-15T02:23:53;3.40;;;3.10;;
18100;SDS011;9177;49.156;8.142;2022-11-15T02:29:58;3.57;;;3.27;;
18100;SDS011;9177;49.156;8.142;2022-11-15T02:32:40;3.20;;;2.90;;
18100;SDS011;9177;49.156;8.142;2022-11-15T02:35:13;3.00;;;2.70;;
18100;SDS011;9177;49.156;8.142;2022-11-15T02:37:50;2.80;;;2.60;;
18100;SDS011;9177;49.156;8.142;2022-11-15T02:40:23;2.90;;;2.60;;
18100;SDS011;9177;49.156;8.142;2022-11-15T02:43:00;3.03;;;2.70;;
18100;SDS011;9177;49.156;8.142;2022-11-15T02:45:50;2.73;;;2.53;;
18100;SDS011;9177;49.156;8.142;2022-11-15T02:48:22;3.60;;;3.23;;
18100;SDS011;9177;49.156;8.142;2022-11-15T02:50:50;3.03;;;2.63;;
18100;SDS011;9177;49.156;8.142;2022-11-15T02:53:20;3.30;;;3.00;;
18100;SDS011;9177;49.156;8.142;2022-11-15T02:55:50;2.87;;;2.67;;
18100;SDS011;9177;49.156;8.142;2022-11-15T02:58:23;3.57;;;3.27;;
18100;SDS011;9177;49.156;8.142;2022-11-15T03:01:11;3.20;;;2.90;;
18100;SDS011;9177;49.156;8.142;2022-11-15T03:03:47;3.07;;;2.80;;
18100;SDS011;9177;49.156;8.142;2022-11-15T03:06:25;3.33;;;3.03;;
18100;SDS011;9177;49.156;8.142;2022-11-15T03:09:05;3.17;;;2.97;;
18100;SDS011;9177;49.156;8.142;2022-11-15T03:11:37;3.00;;;2.70;;
18100;SDS011;9177;49.156;8.142;2022-11-15T03:14:09;2.93;;;2.73;;
18100;SDS011;9177;49.156;8.142;2022-11-15T03:16:47;3.13;;;2.80;;
18100;SDS011;9177;49.156;8.142;2022-11-15T03:19:18;3.20;;;2.90;;
18100;SDS011;9177;49.156;8.142;2022-11-15T03:21:52;3.40;;;3.00;;
18100;SDS011;9177;49.156;8.142;2022-11-15T03:24:22;3.03;;;2.73;;
18100;SDS011;9177;49.156;8.142;2022-11-15T03:26:51;3.20;;;2.90;;
18100;SDS011;9177;49.156;8.142;2022-11-15T03:29:22;3.23;;;2.93;;
18100;SDS011;9177;49.156;8.142;2022-11-15T03:31:55;3.27;;;2.97;;
18100;SDS011;9177;49.156;8.142;2022-11-15T03:34:27;3.37;;;3.07;;
18100;SDS011;9177;49.156;8.142;2022-11-15T03:36:57;3.37;;;2.57;;
18100;SDS011;9177;49.156;8.142;2022-11-15T03:39:24;3.10;;;2.80;;
18100;SDS011;9177;49.156;8.142;2022-11-15T03:41:54;3.73;;;2.80;;
18100;SDS011;9177;49.156;8.142;2022-11-15T03:44:31;2.77;;;2.57;;
18100;SDS011;9177;49.156;8.142;2022-11-15T03:47:07;3.13;;;2.63;;
18100;SDS011;9177;49.156;8.142;2022-11-15T03:49:40;3.93;;;2.97;;
18100;SDS011;9177;49.156;8.142;2022-11-15T03:52:11;3.47;;;2.67;;
18100;SDS011;9177;49.156;8.142;2022-11-15T03:54:47;3.00;;;2.40;;
18100;SDS011;9177;49.156;8.142;2022-11-15T03:57:15;3.40;;;2.60;;
18100;SDS011;9177;49.156;8.142;2022-11-15T03:59:42;2.83;;;2.53;;
18100;SDS011;9177;49.156;8.142;2022-11-15T04:02:10;2.80;;;2.60;;
18100;SDS011;9177;49.156;8.142;2022-11-15T04:04:37;3.27;;;2.80;;
18100;SDS011;9177;49.156;8.142;2022-11-15T04:07:04;2.87;;;2.60;;
18100;SDS011;9177;49.156;8.142;2022-11-15T04:09:31;2.83;;;2.60;;
18100;SDS011;9177;49.156;8.142;2022-11-15T04:11:58;2.87;;;2.63;;
18100;SDS011;9177;49.156;8.142;2022-11-15T04:14:25;2.90;;;2.50;;
18100;SDS011;9177;49.156;8.142;2022-11-15T04:16:52;2.47;;;2.27;;
18100;SDS011;9177;49.156;8.142;2022-11-15T04:19:20;3.10;;;2.80;;
18100;SDS011;9177;49.156;8.142;2022-11-15T04:22:04;3.10;;;2.77;;
18100;SDS011;9177;49.156;8.142;2022-11-15T04:24:47;2.90;;;2.70;;
18100;SDS011;9177;49.156;8.142;2022-11-15T04:27:14;2.60;;;2.40;;
18100;SDS011;9177;49.156;8.142;2022-11-15T04:29:41;2.80;;;2.60;;
18100;SDS011;9177;49.156;8.142;2022-11-15T04:32:08;2.77;;;2.57;;
18100;SDS011;9177;49.156;8.142;2022-11-15T04:34:36;3.07;;;2.77;;
18100;SDS011;9177;49.156;8.142;2022-11-15T04:37:03;2.80;;;2.60;;
18100;SDS011;9177;49.156;8.142;2022-11-15T04:39:41;3.07;;;2.77;;
18100;SDS011;9177;49.156;8.142;2022-11-15T04:42:09;3.13;;;2.80;;
18100;SDS011;9177;49.156;8.142;2022-11-15T04:44:36;3.30;;;3.00;;
18100;SDS011;9177;49.156;8.142;2022-11-15T04:47:06;2.70;;;2.50;;
18100;SDS011;9177;49.156;8.142;2022-11-15T04:49:32;2.67;;;2.47;;
18100;SDS011;9177;49.156;8.142;2022-11-15T04:52:01;2.60;;;2.40;;
18100;SDS011;9177;49.156;8.142;2022-11-15T04:54:28;2.80;;;2.60;;
18100;SDS011;9177;49.156;8.142;2022-11-15T04:56:55;2.67;;;2.47;;
18100;SDS011;9177;49.156;8.142;2022-11-15T04:59:22;3.10;;;2.80;;
18100;SDS011;9177;49.156;8.142;2022-11-15T05:01:49;2.70;;;2.50;;
18100;SDS011;9177;49.156;8.142;2022-11-15T05:07:35;2.60;;;2.40;;
18100;SDS011;9177;49.156;8.142;2022-11-15T05:10:02;2.90;;;2.70;;
18100;SDS011;9177;49.156;8.142;2022-11-15T05:12:30;2.87;;;2.60;;
18100;SDS011;9177;49.156;8.142;2022-11-15T05:14:56;3.07;;;2.77;;
18100;SDS011;9177;49.156;8.142;2022-11-15T05:17:23;3.17;;;2.83;;
18100;SDS011;9177;49.156;8.142;2022-11-15T05:19:50;2.90;;;2.70;;
18100;SDS011;9177;49.156;8.142;2022-11-15T05:22:17;3.13;;;2.80;;
18100;SDS011;9177;49.156;8.142;2022-11-15T05:24:45;2.60;;;2.40;;
18100;SDS011;9177;49.156;8.142;2022-11-15T05:27:13;2.90;;;2.70;;
18100;SDS011;9177;49.156;8.142;2022-11-15T05:29:39;2.90;;;2.60;;
18100;SDS011;9177;49.156;8.142;2022-11-15T05:32:06;4.13;;;2.60;;
18100;SDS011;9177;49.156;8.142;2022-11-15T05:34:35;3.33;;;2.90;;
18100;SDS011;9177;49.156;8.142;2022-11-15T05:37:02;3.00;;;2.80;;
18100;SDS011;9177;49.156;8.142;2022-11-15T05:39:30;2.90;;;2.60;;
18100;SDS011;9177;49.156;8.142;2022-11-15T05:41:59;3.13;;;2.33;;
18100;SDS011;9177;49.156;8.142;2022-11-15T05:44:30;2.77;;;2.50;;
18100;SDS011;9177;49.156;8.142;2022-11-15T05:46:58;3.03;;;2.73;;
18100;SDS011;9177;49.156;8.142;2022-11-15T05:49:26;2.90;;;2.60;;
18100;SDS011;9177;49.156;8.142;2022-11-15T05:51:56;3.30;;;2.77;;
18100;SDS011;9177;49.156;8.142;2022-11-15T05:54:24;2.97;;;2.67;;
18100;SDS011;9177;49.156;8.142;2022-11-15T05:56:51;3.00;;;2.60;;
18100;SDS011;9177;49.156;8.142;2022-11-15T05:59:20;3.10;;;2.80;;
18100;SDS011;9177;49.156;8.142;2022-11-15T06:01:48;2.63;;;2.43;;
18100;SDS011;9177;49.156;8.142;2022-11-15T06:04:14;3.13;;;2.83;;
18100;SDS011;9177;49.156;8.142;2022-11-15T06:06:42;3.07;;;2.87;;
18100;SDS011;9177;49.156;8.142;2022-11-15T06:09:08;3.23;;;2.93;;
18100;SDS011;9177;49.156;8.142;2022-11-15T06:11:35;2.90;;;2.70;;
18100;SDS011;9177;49.156;8.142;2022-11-15T06:14:02;3.27;;;2.97;;
18100;SDS011;9177;49.156;8.142;2022-11-15T06:16:30;2.80;;;2.60;;
18100;SDS011;9177;49.156;8.142;2022-11-15T06:18:57;3.20;;;2.90;;
18100;SDS011;9177;49.156;8.142;2022-11-15T06:21:24;2.80;;;2.60;;
18100;SDS011;9177;49.156;8.142;2022-11-15T06:23:54;2.67;;;2.47;;
18100;SDS011;9177;49.156;8.142;2022-11-15T06:26:21;2.87;;;2.67;;
18100;SDS011;9177;49.156;8.142;2022-11-15T06:28:48;2.67;;;2.30;;
18100;SDS011;9177;49.156;8.142;2022-11-15T06:31:14;3.20;;;2.90;;
18100;SDS011;9177;49.156;8.142;2022-11-15T06:33:43;3.03;;;2.83;;
18100;SDS011;9177;49.156;8.142;2022-11-15T06:36:11;3.10;;;2.80;;
18100;SDS011;9177;49.156;8.142;2022-11-15T06:38:41;2.87;;;2.67;;
18100;SDS011;9177;49.156;8.142;2022-11-15T06:41:09;3.30;;;3.00;;
18100;SDS011;9177;49.156;8.142;2022-11-15T06:43:37;2.67;;;2.47;;
18100;SDS011;9177;49.156;8.142;2022-11-15T06:46:04;2.60;;;2.27;;
18100;SDS011;9177;49.156;8.142;2022-11-15T06:48:32;2.53;;;2.33;;
18100;SDS011;9177;49.156;8.142;2022-11-15T06:51:03;2.83;;;2.63;;
18100;SDS011;9177;49.156;8.142;2022-11-15T06:53:31;2.90;;;2.70;;
18100;SDS011;9177;49.156;8.142;2022-11-15T06:55:58;2.80;;;2.60;;
18100;SDS011;9177;49.156;8.142;2022-11-15T06:58:26;3.57;;;2.70;;
18100;SDS011;9177;49.156;8.142;2022-11-15T07:00:53;3.13;;;2.90;;
18100;SDS011;9177;49.156;8.142;2022-11-15T07:03:24;2.97;;;2.77;;
18100;SDS011;9177;49.156;8.142;2022-11-15T07:05:52;3.13;;;2.83;;
18100;SDS011;9177;49.156;8.142;2022-11-15T07:08:21;2.80;;;2.60;;
18100;SDS011;9177;49.156;8.142;2022-11-15T07:10:53;2.83;;;2.60;;
18100;SDS011;9177;49.156;8.142;2022-11-15T07:13:23;2.90;;;2.70;;
18100;SDS011;9177;49.156;8.142;2022-11-15T07:15:51;3.27;;;2.97;;
18100;SDS011;9177;49.156;8.142;2022-11-15T07:18:18;3.20;;;2.90;;
18100;SDS011;9177;49.156;8.142;2022-11-15T07:20:45;2.90;;;2.53;;
18100;SDS011;9177;49.156;8.142;2022-11-15T07:23:11;3.27;;;2.80;;
18100;SDS011;9177;49.156;8.142;2022-11-15T07:25:40;3.03;;;2.83;;
18100;SDS011;9177;49.156;8.142;2022-11-15T07:28:07;2.57;;;2.37;;
18100;SDS011;9177;49.156;8.142;2022-11-15T07:30:34;4.50;;;2.97;;
18100;SDS011;9177;49.156;8.142;2022-11-15T07:33:01;2.90;;;2.70;;
18100;SDS011;9177;49.156;8.142;2022-11-15T07:35:28;3.17;;;2.87;;
18100;SDS011;9177;49.156;8.142;2022-11-15T07:37:57;2.97;;;2.70;;
18100;SDS011;9177;49.156;8.142;2022-11-15T07:40:30;2.93;;;2.57;;
18100;SDS011;9177;49.156;8.142;2022-11-15T07:43:00;3.60;;;2.87;;
18100;SDS011;9177;49.156;8.142;2022-11-15T07:45:28;2.73;;;2.53;;
18100;SDS011;9177;49.156;8.142;2022-11-15T07:47:55;3.40;;;3.10;;
18100;SDS011;9177;49.156;8.142;2022-11-15T07:50:22;3.13;;;2.87;;
18100;SDS011;9177;49.156;8.142;2022-11-15T07:52:52;2.97;;;2.67;;
18100;SDS011;9177;49.156;8.142;2022-11-15T07:55:20;3.00;;;2.77;;
18100;SDS011;9177;49.156;8.142;2022-11-15T07:57:47;3.40;;;3.10;;
18100;SDS011;9177;49.156;8.142;2022-11-15T08:00:16;3.53;;;3.20;;
18100;SDS011;9177;49.156;8.142;2022-11-15T08:02:44;3.17;;;2.87;;
18100;SDS011;9177;49.156;8.142;2022-11-15T08:05:11;3.30;;;3.00;;
18100;SDS011;9177;49.156;8.142;2022-11-15T08:07:38;3.30;;;3.00;;
18100;SDS011;9177;49.156;8.142;2022-11-15T08:10:06;3.47;;;3.17;;
18100;SDS011;9177;49.156;8.142;2022-11-15T08:12:34;3.10;;;2.80;;
18100;SDS011;9177;49.156;8.142;2022-11-15T08:15:01;3.23;;;2.93;;
18100;SDS011;9177;49.156;8.142;2022-11-15T08:17:29;2.90;;;2.70;;
18100;SDS011;9177;49.156;8.142;2022-11-15T08:19:58;2.80;;;2.60;;
18100;SDS011;9177;49.156;8.142;2022-11-15T08:22:25;3.10;;;2.90;;
18100;SDS011;9177;49.156;8.142;2022-11-15T08:24:52;3.60;;;3.27;;
18100;SDS011;9177;49.156;8.142;2022-11-15T08:27:19;3.03;;;2.83;;
18100;SDS011;9177;49.156;8.142;2022-11-15T08:29:47;3.00;;;2.70;;
18100;SDS011;9177;49.156;8.142;2022-11-15T08:32:15;3.40;;;3.10;;
18100;SDS011;9177;49.156;8.142;2022-11-15T08:34:44;3.33;;;2.90;;
18100;SDS011;9177;49.156;8.142;2022-11-15T08:37:11;2.87;;;2.67;;
18100;SDS011;9177;49.156;8.142;2022-11-15T08:39:38;3.63;;;3.10;;
18100;SDS011;9177;49.156;8.142;2022-11-15T08:42:05;3.53;;;3.23;;
18100;SDS011;9177;49.156;8.142;2022-11-15T08:44:32;3.40;;;3.10;;
18100;SDS011;9177;49.156;8.142;2022-11-15T08:46:59;3.00;;;2.80;;
18100;SDS011;9177;49.156;8.142;2022-11-15T08:49:26;2.97;;;2.77;;
18100;SDS011;9177;49.156;8.142;2022-11-15T08:51:54;3.10;;;2.80;;
18100;SDS011;9177;49.156;8.142;2022-11-15T08:54:21;3.20;;;2.90;;
18100;SDS011;9177;49.156;8.142;2022-11-15T08:56:51;3.10;;;2.80;;
18100;SDS011;9177;49.156;8.142;2022-11-15T08:59:18;3.10;;;2.73;;
18100;SDS011;9177;49.156;8.142;2022-11-15T09:01:45;3.03;;;2.73;;
18100;SDS011;9177;49.156;8.142;2022-11-15T09:04:12;3.10;;;2.70;;
18100;SDS011;9177;49.156;8.142;2022-11-15T09:06:39;3.40;;;3.20;;
18100;SDS011;9177;49.156;8.142;2022-11-15T09:09:07;4.20;;;2.83;;
18100;SDS011;9177;49.156;8.142;2022-11-15T09:11:35;3.30;;;2.73;;
18100;SDS011;9177;49.156;8.142;2022-11-15T09:14:01;3.27;;;2.97;;
18100;SDS011;9177;49.156;8.142;2022-11-15T09:16:29;3.10;;;2.90;;
18100;SDS011;9177;49.156;8.142;2022-11-15T09:18:56;3.30;;;3.03;;
18100;SDS011;9177;49.156;8.142;2022-11-15T09:21:28;3.30;;;3.00;;
18100;SDS011;9177;49.156;8.142;2022-11-15T09:23:55;2.87;;;2.67;;
18100;SDS011;9177;49.156;8.142;2022-11-15T09:26:23;3.20;;;2.90;;
18100;SDS011;9177;49.156;8.142;2022-11-15T09:28:51;4.20;;;2.60;;
18100;SDS011;9177;49.156;8.142;2022-11-15T09:31:18;4.10;;;2.87;;
18100;SDS011;9177;49.156;8.142;2022-11-15T09:33:47;11.90;;;2.97;;
18100;SDS011;9177;49.156;8.142;2022-11-15T09:36:14;4.33;;;3.17;;
18100;SDS011;9177;49.156;8.142;2022-11-15T09:38:42;7.93;;;2.77;;
18100;SDS011;9177;49.156;8.142;2022-11-15T09:41:23;3.33;;;2.70;;
18100;SDS011;9177;49.156;8.142;2022-11-15T09:44:09;4.60;;;3.30;;
18100;SDS011;9177;49.156;8.142;2022-11-15T09:46:49;4.60;;;3.03;;
18100;SDS011;9177;49.156;8.142;2022-11-15T09:49:23;4.27;;;2.80;;
18100;SDS011;9177;49.156;8.142;2022-11-15T09:51:55;4.93;;;3.20;;
18100;SDS011;9177;49.156;8.142;2022-11-15T09:54:25;5.43;;;2.90;;
18100;SDS011;9177;49.156;8.142;2022-11-15T09:57:00;4.47;;;2.60;;
18100;SDS011;9177;49.156;8.142;2022-11-15T09:59:52;4.57;;;3.30;;
18100;SDS011;9177;49.156;8.142;2022-11-15T10:02:36;3.70;;;3.30;;
18100;SDS011;9177;49.156;8.142;2022-11-15T10:05:18;3.00;;;2.67;;
18100;SDS011;9177;49.156;8.142;2022-11-15T10:07:50;3.60;;;3.00;;
18100;SDS011;9177;49.156;8.142;2022-11-15T10:10:23;4.10;;;2.67;;
18100;SDS011;9177;49.156;8.142;2022-11-15T10:12:56;3.07;;;2.60;;
18100;SDS011;9177;49.156;8.142;2022-11-15T10:15:23;3.13;;;2.83;;
18100;SDS011;9177;49.156;8.142;2022-11-15T10:18:04;4.03;;;3.20;;
18100;SDS011;9177;49.156;8.142;2022-11-15T10:20:50;6.23;;;3.10;;
18100;SDS011;9177;49.156;8.142;2022-11-15T10:23:22;3.20;;;2.90;;
18100;SDS011;9177;49.156;8.142;2022-11-15T10:25:52;3.77;;;3.10;;
18100;SDS011;9177;49.156;8.142;2022-11-15T10:28:22;2.90;;;2.60;;
18100;SDS011;9177;49.156;8.142;2022-11-15T10:30:54;3.40;;;2.53;;
18100;SDS011;9177;49.156;8.142;2022-11-15T10:33:29;3.03;;;2.70;;
18100;SDS011;9177;49.156;8.142;2022-11-15T10:36:15;3.07;;;2.80;;
18100;SDS011;9177;49.156;8.142;2022-11-15T10:38:56;3.50;;;3.20;;
18100;SDS011;9177;49.156;8.142;2022-11-15T10:41:31;3.60;;;2.50;;
18100;SDS011;9177;49.156;8.142;2022-11-15T10:44:17;2.80;;;2.60;;
18100;SDS011;9177;49.156;8.142;2022-11-15T10:49:59;3.57;;;2.90;;
18100;SDS011;9177;49.156;8.142;2022-11-15T10:52:31;3.00;;;2.77;;
18100;SDS011;9177;49.156;8.142;2022-11-15T10:55:02;3.07;;;2.60;;
18100;SDS011;9177;49.156;8.142;2022-11-15T10:57:33;2.97;;;2.70;;
18100;SDS011;9177;49.156;8.142;2022-11-15T11:00:06;3.30;;;2.57;;
18100;SDS011;9177;49.156;8.142;2022-11-15T11:02:56;3.83;;;2.87;;
18100;SDS011;9177;49.156;8.142;2022-11-15T11:05:26;3.47;;;2.90;;
18100;SDS011;9177;49.156;8.142;2022-11-15T11:07:56;2.93;;;2.63;;
18100;SDS011;9177;49.156;8.142;2022-11-15T11:10:24;3.20;;;2.67;;
18100;SDS011;9177;49.156;8.142;2022-11-15T11:12:51;2.97;;;2.67;;
18100;SDS011;9177;49.156;8.142;2022-11-15T11:15:20;3.40;;;2.63;;
18100;SDS011;9177;49.156;8.142;2022-11-15T11:17:57;2.80;;;2.60;;
18100;SDS011;9177;49.156;8.142;2022-11-15T11:20:29;2.80;;;2.57;;
18100;SDS011;9177;49.156;8.142;2022-11-15T11:23:04;5.00;;;3.10;;
18100;SDS011;9177;49.156;8.142;2022-11-15T11:26:01;3.47;;;2.90;;
18100;SDS011;9177;49.156;8.142;2022-11-15T11:28:41;4.03;;;2.93;;
18100;SDS011;9177;49.156;8.142;2022-11-15T11:31:20;2.83;;;2.60;;
18100;SDS011;9177;49.156;8.142;2022-11-15T11:33:57;3.53;;;3.00;;
18100;SDS011;9177;49.156;8.142;2022-11-15T11:36:33;4.10;;;3.00;;
18100;SDS011;9177;49.156;8.142;2022-11-15T11:39:11;3.43;;;3.13;;
18100;SDS011;9177;49.156;8.142;2022-11-15T11:41:53;3.07;;;2.77;;
18100;SDS011;9177;49.156;8.142;2022-11-15T11:44:30;3.37;;;2.60;;
18100;SDS011;9177;49.156;8.142;2022-11-15T11:47:06;4.93;;;2.70;;
18100;SDS011;9177;49.156;8.142;2022-11-15T11:49:39;2.87;;;2.50;;
18100;SDS011;9177;49.156;8.142;2022-11-15T11:52:12;4.40;;;2.60;;
18100;SDS011;9177;49.156;8.142;2022-11-15T11:54:45;4.73;;;2.90;;
18100;SDS011;9177;49.156;8.142;2022-11-15T11:57:23;2.87;;;2.57;;
18100;SDS011;9177;49.156;8.142;2022-11-15T11:59:57;7.17;;;3.00;;
18100;SDS011;9177;49.156;8.142;2022-11-15T12:02:30;14.80;;;3.30;;
18100;SDS011;9177;49.156;8.142;2022-11-15T12:05:04;7.97;;;3.33;;
18100;SDS011;9177;49.156;8.142;2022-11-15T12:07:38;8.60;;;3.07;;
18100;SDS011;9177;49.156;8.142;2022-11-15T12:10:11;6.30;;;3.33;;
18100;SDS011;9177;49.156;8.142;2022-11-15T12:12:47;8.53;;;3.33;;
18100;SDS011;9177;49.156;8.142;2022-11-15T12:15:19;10.30;;;3.30;;
18100;SDS011;9177;49.156;8.142;2022-11-15T12:17:51;9.63;;;3.37;;
18100;SDS011;9177;49.156;8.142;2022-11-15T12:20:21;10.00;;;3.37;;
18100;SDS011;9177;49.156;8.142;2022-11-15T12:22:55;9.90;;;3.30;;
18100;SDS011;9177;49.156;8.142;2022-11-15T12:25:27;9.63;;;3.40;;
18100;SDS011;9177;49.156;8.142;2022-11-15T12:27:57;16.57;;;3.30;;
18100;SDS011;9177;49.156;8.142;2022-11-15T12:30:29;7.03;;;3.00;;
18100;SDS011;9177;49.156;8.142;2022-11-15T12:33:27;10.90;;;3.17;;
18100;SDS011;9177;49.156;8.142;2022-11-15T12:36:03;13.93;;;3.47;;
18100;SDS011;9177;49.156;8.142;2022-11-15T12:41:22;13.43;;;3.93;;
18100;SDS011;9177;49.156;8.142;2022-11-15T12:43:51;21.33;;;4.30;;
18100;SDS011;9177;49.156;8.142;2022-11-15T12:52:15;15.77;;;4.03;;
18100;SDS011;9177;49.156;8.142;2022-11-15T12:54:53;16.97;;;4.10;;
18100;SDS011;9177;49.156;8.142;2022-11-15T13:06:41;15.93;;;4.57;;
18100;SDS011;9177;49.156;8.142;2022-11-15T13:12:47;14.20;;;4.63;;
18100;SDS011;9177;49.156;8.142;2022-11-15T13:15:30;10.90;;;3.80;;
18100;SDS011;9177;49.156;8.142;2022-11-15T13:24:09;10.73;;;4.30;;
18100;SDS011;9177;49.156;8.142;2022-11-15T13:26:41;15.80;;;4.20;;
18100;SDS011;9177;49.156;8.142;2022-11-15T13:29:15;13.97;;;4.40;;
18100;SDS011;9177;49.156;8.142;2022-11-15T13:31:43;9.87;;;3.70;;
18100;SDS011;9177;49.156;8.142;2022-11-15T13:34:22;17.67;;;5.50;;
18100;SDS011;9177;49.156;8.142;2022-11-15T13:36:52;15.50;;;4.87;;
18100;SDS011;9177;49.156;8.142;2022-11-15T13:39:27;14.57;;;5.03;;
18100;SDS011;9177;49.156;8.142;2022-11-15T13:41:55;14.17;;;5.17;;
18100;SDS011;9177;49.156;8.142;2022-11-15T13:44:23;14.03;;;4.83;;
18100;SDS011;9177;49.156;8.142;2022-11-15T13:47:03;11.53;;;4.80;;
18100;SDS011;9177;49.156;8.142;2022-11-15T13:49:31;13.23;;;4.73;;
18100;SDS011;9177;49.156;8.142;2022-11-15T13:52:00;9.37;;;4.53;;
18100;SDS011;9177;49.156;8.142;2022-11-15T13:54:30;13.13;;;4.93;;
18100;SDS011;9177;49.156;8.142;2022-11-15T13:57:02;11.30;;;4.20;;
18100;SDS011;9177;49.156;8.142;2022-11-15T13:59:33;10.07;;;3.90;;
18100;SDS011;9177;49.156;8.142;2022-11-15T14:02:02;11.23;;;4.23;;
18100;SDS011;9177;49.156;8.142;2022-11-15T14:04:39;8.27;;;3.63;;
18100;SDS011;9177;49.156;8.142;2022-11-15T14:07:15;7.73;;;4.13;;
18100;SDS011;9177;49.156;8.142;2022-11-15T14:09:46;9.43;;;4.37;;
18100;SDS011;9177;49.156;8.142;2022-11-15T14:12:23;8.97;;;4.20;;
18100;SDS011;9177;49.156;8.142;2022-11-15T14:14:56;10.53;;;4.20;;
18100;SDS011;9177;49.156;8.142;2022-11-15T14:17:35;10.60;;;3.77;;
18100;SDS011;9177;49.156;8.142;2022-11-15T14:20:25;9.43;;;3.97;;
18100;SDS011;9177;49.156;8.142;2022-11-15T14:22:56;8.53;;;4.07;;
18100;SDS011;9177;49.156;8.142;2022-11-15T14:25:26;8.77;;;3.53;;
18100;SDS011;9177;49.156;8.142;2022-11-15T14:28:14;8.47;;;3.80;;
18100;SDS011;9177;49.156;8.142;2022-11-15T14:30:54;8.90;;;3.80;;
18100;SDS011;9177;49.156;8.142;2022-11-15T14:33:27;7.37;;;3.60;;
18100;SDS011;9177;49.156;8.142;2022-11-15T14:35:56;11.27;;;3.80;;
18100;SDS011;9177;49.156;8.142;2022-11-15T14:38:24;8.53;;;3.40;;
18100;SDS011;9177;49.156;8.142;2022-11-15T14:40:53;6.47;;;3.80;;
18100;SDS011;9177;49.156;8.142;2022-11-15T14:43:21;9.03;;;4.23;;
18100;SDS011;9177;49.156;8.142;2022-11-15T14:45:49;8.63;;;3.63;;
18100;SDS011;9177;49.156;8.142;2022-11-15T14:48:16;6.27;;;3.43;;
18100;SDS011;9177;49.156;8.142;2022-11-15T14:50:42;5.67;;;3.23;;
18100;SDS011;9177;49.156;8.142;2022-11-15T14:53:12;8.60;;;3.83;;
18100;SDS011;9177;49.156;8.142;2022-11-15T14:55:40;7.37;;;4.10;;
18100;SDS011;9177;49.156;8.142;2022-11-15T14:58:09;8.83;;;4.03;;
18100;SDS011;9177;49.156;8.142;2022-11-15T15:00:36;8.20;;;3.60;;
18100;SDS011;9177;49.156;8.142;2022-11-15T15:03:05;6.07;;;3.57;;
18100;SDS011;9177;49.156;8.142;2022-11-15T15:05:33;6.50;;;3.73;;
18100;SDS011;9177;49.156;8.142;2022-11-15T15:08:01;9.13;;;3.80;;
18100;SDS011;9177;49.156;8.142;2022-11-15T15:10:30;8.50;;;3.80;;
18100;SDS011;9177;49.156;8.142;2022-11-15T15:12:59;4.50;;;2.90;;
18100;SDS011;9177;49.156;8.142;2022-11-15T15:15:29;5.43;;;3.33;;
18100;SDS011;9177;49.156;8.142;2022-11-15T15:17:59;5.33;;;3.03;;
18100;SDS011;9177;49.156;8.142;2022-11-15T15:20:27;6.07;;;3.33;;
18100;SDS011;9177;49.156;8.142;2022-11-15T15:22:55;6.13;;;3.30;;
18100;SDS011;9177;49.156;8.142;2022-11-15T15:25:22;4.50;;;3.00;;
18100;SDS011;9177;49.156;8.142;2022-11-15T15:27:52;5.77;;;2.77;;
18100;SDS011;9177;49.156;8.142;2022-11-15T15:30:20;5.03;;;3.20;;
18100;SDS011;9177;49.156;8.142;2022-11-15T15:32:48;5.03;;;3.00;;
18100;SDS011;9177;49.156;8.142;2022-11-15T15:35:16;4.67;;;3.10;;
18100;SDS011;9177;49.156;8.142;2022-11-15T15:37:44;3.67;;;2.87;;
18100;SDS011;9177;49.156;8.142;2022-11-15T15:40:14;5.23;;;3.43;;
18100;SDS011;9177;49.156;8.142;2022-11-15T15:42:43;5.00;;;3.20;;
18100;SDS011;9177;49.156;8.142;2022-11-15T15:45:10;5.67;;;3.20;;
18100;SDS011;9177;49.156;8.142;2022-11-15T15:47:38;4.27;;;2.90;;
18100;SDS011;9177;49.156;8.142;2022-11-15T15:50:11;3.80;;;3.10;;
18100;SDS011;9177;49.156;8.142;2022-11-15T15:52:46;5.43;;;3.47;;
18100;SDS011;9177;49.156;8.142;2022-11-15T15:55:13;3.73;;;2.80;;
18100;SDS011;9177;49.156;8.142;2022-11-15T15:57:40;4.83;;;2.97;;